createdAt,value
2016-09-09T00:00:24.120Z,0
2016-09-09T00:01:24.129Z,0
2016-09-09T00:02:23.762Z,0
2016-09-09T00:03:24.067Z,0
2016-09-09T00:04:24.041Z,0
2016-09-09T00:05:23.725Z,0
2016-09-09T00:06:23.398Z,0
2016-09-09T00:07:23.407Z,0
2016-09-09T00:08:24.025Z,0
2016-09-09T00:09:23.381Z,0
2016-09-09T00:10:23.984Z,0
2016-09-09T00:11:23.430Z,0
2016-09-09T00:12:23.675Z,0
2016-09-09T00:13:23.696Z,0
2016-09-09T00:14:23.647Z,0
2016-09-09T00:15:23.922Z,0
2016-09-09T00:16:23.270Z,0
2016-09-09T00:17:23.609Z,0
2016-09-09T00:18:23.647Z,0
2016-09-09T00:19:22.930Z,0
2016-09-09T00:20:23.899Z,0
2016-09-09T00:21:23.862Z,0
2016-09-09T00:22:23.233Z,0
2016-09-09T00:23:23.839Z,0
2016-09-09T00:24:23.826Z,0
2016-09-09T00:25:23.835Z,0
2016-09-09T00:26:23.494Z,0
2016-09-09T00:27:23.485Z,0
2016-09-09T00:28:23.789Z,0
2016-09-09T00:29:22.825Z,0
2016-09-09T00:30:23.770Z,0
2016-09-09T00:31:23.488Z,0
2016-09-09T00:32:23.422Z,0
2016-09-09T00:33:23.743Z,0
2016-09-09T00:34:23.733Z,0
2016-09-09T00:35:23.726Z,0
2016-09-09T00:36:23.755Z,0
2016-09-09T00:37:23.372Z,0
2016-09-09T00:38:23.409Z,0
2016-09-09T00:39:23.653Z,0
2016-09-09T00:40:23.384Z,0
2016-09-09T00:41:23.660Z,0
2016-09-09T00:42:23.008Z,0
2016-09-09T00:43:23.376Z,0
2016-09-09T00:44:23.311Z,0
2016-09-09T00:45:23.618Z,0
2016-09-09T00:46:23.602Z,0
2016-09-09T00:47:23.268Z,0
2016-09-09T00:48:23.562Z,0
2016-09-09T00:49:23.561Z,0
2016-09-09T00:50:22.911Z,0
2016-09-09T00:51:23.545Z,0
2016-09-09T00:52:22.971Z,0
2016-09-09T00:53:23.218Z,0
2016-09-09T00:54:23.186Z,0
2016-09-09T00:55:22.550Z,0
2016-09-09T00:56:23.472Z,0
2016-09-09T00:57:23.485Z,0
2016-09-09T00:58:23.143Z,0
2016-09-09T00:59:23.484Z,0
2016-09-09T01:00:23.437Z,0
2016-09-09T01:01:22.790Z,0
2016-09-09T01:02:23.407Z,0
2016-09-09T01:03:23.089Z,0
2016-09-09T01:04:23.064Z,0
2016-09-09T01:05:23.073Z,0
2016-09-09T01:06:22.728Z,0
2016-09-09T01:07:22.729Z,0
2016-09-09T01:08:22.706Z,0
2016-09-09T01:09:23.020Z,0
2016-09-09T01:10:22.696Z,0
2016-09-09T01:11:23.082Z,0
2016-09-09T01:12:23.282Z,0
2016-09-09T01:13:23.287Z,0
2016-09-09T01:14:23.272Z,0
2016-09-09T01:15:23.266Z,0
2016-09-09T01:16:22.941Z,0
2016-09-09T01:17:22.631Z,0
2016-09-09T01:18:23.229Z,0
2016-09-09T01:19:22.271Z,0
2016-09-09T01:20:23.201Z,0
2016-09-09T01:21:23.193Z,0
2016-09-09T01:22:22.925Z,0
2016-09-09T01:23:23.190Z,0
2016-09-09T01:24:22.858Z,0
2016-09-09T01:25:23.140Z,0
2016-09-09T01:26:22.811Z,0
2016-09-09T01:27:22.810Z,0
2016-09-09T01:28:22.809Z,0
2016-09-09T01:29:22.780Z,0
2016-09-09T01:30:22.470Z,0
2016-09-09T01:31:22.768Z,0
2016-09-09T01:32:23.131Z,0
2016-09-09T01:33:22.414Z,0
2016-09-09T01:34:22.733Z,0
2016-09-09T01:35:23.042Z,0
2016-09-09T01:36:22.698Z,0
2016-09-09T01:37:22.381Z,0
2016-09-09T01:38:23.016Z,0
2016-09-09T01:39:22.353Z,0
2016-09-09T01:40:23.035Z,0
2016-09-09T01:41:22.968Z,0
2016-09-09T01:42:22.320Z,0
2016-09-09T01:43:22.287Z,0
2016-09-09T01:44:22.980Z,0
2016-09-09T01:45:22.601Z,0
2016-09-09T01:46:22.914Z,0
2016-09-09T01:47:22.947Z,0
2016-09-09T01:48:22.315Z,0
2016-09-09T01:49:22.880Z,0
2016-09-09T01:50:22.890Z,0
2016-09-09T01:51:22.852Z,0
2016-09-09T01:52:22.531Z,0
2016-09-09T01:53:22.518Z,0
2016-09-09T01:54:22.488Z,0
2016-09-09T01:55:22.489Z,0
2016-09-09T01:56:22.490Z,0
2016-09-09T01:57:22.471Z,0
2016-09-09T01:58:22.143Z,0
2016-09-09T01:59:22.452Z,0
2016-09-09T02:00:22.419Z,0
2016-09-09T02:01:22.761Z,0
2016-09-09T02:02:22.408Z,0
2016-09-09T02:03:22.748Z,0
2016-09-09T02:04:22.380Z,0
2016-09-09T02:05:22.358Z,0
2016-09-09T02:06:22.361Z,0
2016-09-09T02:07:22.649Z,0
2016-09-09T02:08:22.040Z,0
2016-09-09T02:09:22.311Z,0
2016-09-09T02:10:22.621Z,0
2016-09-09T02:11:22.589Z,0
2016-09-09T02:12:22.290Z,0
2016-09-09T02:13:22.258Z,0
2016-09-09T02:14:22.603Z,0
2016-09-09T02:15:22.560Z,0
2016-09-09T02:16:22.239Z,0
2016-09-09T02:17:22.541Z,0
2016-09-09T02:18:22.221Z,0
2016-09-09T02:19:22.218Z,0
2016-09-09T02:20:21.870Z,0
2016-09-09T02:21:21.853Z,0
2016-09-09T02:22:21.843Z,0
2016-09-09T02:23:22.468Z,0
2016-09-09T02:24:22.463Z,0
2016-09-09T02:25:22.452Z,0
2016-09-09T02:26:21.791Z,0
2016-09-09T02:27:22.423Z,0
2016-09-09T02:28:22.093Z,0
2016-09-09T02:29:21.760Z,0
2016-09-09T02:30:21.440Z,0
2016-09-09T02:31:22.403Z,0
2016-09-09T02:32:22.116Z,0
2016-09-09T02:33:22.050Z,0
2016-09-09T02:34:21.751Z,0
2016-09-09T02:35:22.005Z,0
2016-09-09T02:36:22.335Z,0
2016-09-09T02:37:22.010Z,0
2016-09-09T02:38:21.981Z,0
2016-09-09T02:39:22.030Z,0
2016-09-09T02:40:21.970Z,0
2016-09-09T02:41:22.358Z,0
2016-09-09T02:42:22.279Z,0
2016-09-09T02:43:21.924Z,0
2016-09-09T02:44:21.924Z,0
2016-09-09T02:45:21.980Z,0
2016-09-09T02:46:21.591Z,0
2016-09-09T02:47:22.281Z,0
2016-09-09T02:48:21.971Z,0
2016-09-09T02:49:21.880Z,0
2016-09-09T02:50:22.260Z,0
2016-09-09T02:51:21.839Z,0
2016-09-09T02:52:21.875Z,0
2016-09-09T02:53:21.810Z,0
2016-09-09T02:54:21.820Z,0
2016-09-09T02:55:21.790Z,0
2016-09-09T02:56:21.867Z,0
2016-09-09T02:57:21.780Z,0
2016-09-09T02:58:22.121Z,0
2016-09-09T02:59:21.803Z,0
2016-09-09T03:00:21.741Z,0
2016-09-09T03:01:22.061Z,0
2016-09-09T03:02:21.389Z,0
2016-09-09T03:03:22.045Z,0
2016-09-09T03:04:22.056Z,0
2016-09-09T03:05:21.070Z,0
2016-09-09T03:06:21.741Z,0
2016-09-09T03:07:21.944Z,0
2016-09-09T03:08:21.960Z,0
2016-09-09T03:09:21.950Z,0
2016-09-09T03:10:21.912Z,0
2016-09-09T03:11:21.922Z,0
2016-09-09T03:12:21.882Z,0
2016-09-09T03:13:21.638Z,0
2016-09-09T03:14:21.564Z,0
2016-09-09T03:15:21.867Z,0
2016-09-09T03:16:21.540Z,0
2016-09-09T03:17:21.862Z,0
2016-09-09T03:18:21.826Z,0
2016-09-09T03:19:21.518Z,0
2016-09-09T03:20:21.791Z,0
2016-09-09T03:21:21.814Z,0
2016-09-09T03:22:21.782Z,0
2016-09-09T03:23:21.781Z,0
2016-09-09T03:24:21.125Z,0
2016-09-09T03:25:21.738Z,0
2016-09-09T03:26:21.761Z,0
2016-09-09T03:27:21.713Z,0
2016-09-09T03:28:21.730Z,0
2016-09-09T03:29:21.456Z,0
2016-09-09T03:30:21.391Z,0
2016-09-09T03:31:21.348Z,0
2016-09-09T03:32:21.661Z,0
2016-09-09T03:33:21.333Z,0
2016-09-09T03:34:20.658Z,0
2016-09-09T03:35:21.642Z,0
2016-09-09T03:36:21.623Z,0
2016-09-09T03:37:21.263Z,0
2016-09-09T03:38:21.275Z,0
2016-09-09T03:39:21.590Z,0
2016-09-09T03:40:21.592Z,0
2016-09-09T03:41:21.550Z,0
2016-09-09T03:42:21.230Z,0
2016-09-09T03:43:21.538Z,0
2016-09-09T03:44:21.538Z,0
2016-09-09T03:45:21.190Z,0
2016-09-09T03:46:21.171Z,0
2016-09-09T03:47:21.170Z,0
2016-09-09T03:48:21.491Z,0
2016-09-09T03:49:21.448Z,0
2016-09-09T03:50:21.467Z,0
2016-09-09T03:51:21.115Z,0
2016-09-09T03:52:21.448Z,0
2016-09-09T03:53:21.465Z,0
2016-09-09T03:54:21.392Z,0
2016-09-09T03:55:21.071Z,0
2016-09-09T03:56:21.051Z,0
2016-09-09T03:57:21.034Z,0
2016-09-09T03:58:21.341Z,0
2016-09-09T03:59:21.331Z,0
2016-09-09T04:00:21.323Z,0
2016-09-09T04:01:21.300Z,0
2016-09-09T04:02:20.962Z,0
2016-09-09T04:03:21.279Z,0
2016-09-09T04:04:20.957Z,0
2016-09-09T04:05:21.280Z,0
2016-09-09T04:06:20.913Z,0
2016-09-09T04:07:21.282Z,0
2016-09-09T04:08:20.896Z,0
2016-09-09T04:09:21.211Z,0
2016-09-09T04:10:21.203Z,0
2016-09-09T04:11:21.187Z,0
2016-09-09T04:12:20.837Z,0
2016-09-09T04:13:21.150Z,0
2016-09-09T04:14:21.149Z,0
2016-09-09T04:15:20.501Z,0
2016-09-09T04:16:21.148Z,0
2016-09-09T04:17:20.796Z,0
2016-09-09T04:18:21.124Z,0
2016-09-09T04:19:21.091Z,0
2016-09-09T04:20:21.080Z,0
2016-09-09T04:21:20.749Z,0
2016-09-09T04:22:21.059Z,0
2016-09-09T04:23:20.394Z,0
2016-09-09T04:24:20.705Z,0
2016-09-09T04:25:20.999Z,0
2016-09-09T04:26:20.678Z,0
2016-09-09T04:27:20.341Z,0
2016-09-09T04:28:20.671Z,0
2016-09-09T04:29:20.661Z,0
2016-09-09T04:30:20.630Z,0
2016-09-09T04:31:20.918Z,0
2016-09-09T04:32:20.912Z,0
2016-09-09T04:33:20.904Z,0
2016-09-09T04:34:20.885Z,0
2016-09-09T04:35:20.891Z,0
2016-09-09T04:36:20.847Z,0
2016-09-09T04:37:20.530Z,0
2016-09-09T04:38:20.816Z,0
2016-09-09T04:39:20.529Z,0
2016-09-09T04:40:20.807Z,0
2016-09-09T04:41:20.801Z,0
2016-09-09T04:42:20.790Z,0
2016-09-09T04:43:20.140Z,0
2016-09-09T04:44:20.438Z,0
2016-09-09T04:45:20.744Z,0
2016-09-09T04:46:20.761Z,0
2016-09-09T04:47:20.416Z,0
2016-09-09T04:48:20.391Z,0
2016-09-09T04:49:20.716Z,0
2016-09-09T04:50:20.378Z,0
2016-09-09T04:51:20.368Z,0
2016-09-09T04:52:20.668Z,0
2016-09-09T04:53:20.651Z,0
2016-09-09T04:54:20.622Z,0
2016-09-09T04:55:20.364Z,0
2016-09-09T04:56:20.277Z,0
2016-09-09T04:57:19.942Z,0
2016-09-09T04:58:20.261Z,0
2016-09-09T04:59:20.265Z,5
2016-09-09T05:00:20.231Z,5
2016-09-09T05:01:20.538Z,5
2016-09-09T05:02:20.532Z,5
2016-09-09T05:03:20.197Z,5
2016-09-09T05:04:19.871Z,5
2016-09-09T05:05:20.521Z,5
2016-09-09T05:06:20.150Z,5
2016-09-09T05:07:20.147Z,5
2016-09-09T05:08:20.447Z,5
2016-09-09T05:09:20.435Z,5
2016-09-09T05:10:20.199Z,10
2016-09-09T05:11:20.402Z,10
2016-09-09T05:12:20.416Z,10
2016-09-09T05:13:20.436Z,10
2016-09-09T05:14:20.436Z,10
2016-09-09T05:15:20.095Z,10
2016-09-09T05:16:20.081Z,10
2016-09-09T05:17:20.022Z,15
2016-09-09T05:18:19.698Z,15
2016-09-09T05:19:20.294Z,15
2016-09-09T05:20:19.989Z,15
2016-09-09T05:21:19.955Z,15
2016-09-09T05:22:20.291Z,15
2016-09-09T05:23:19.947Z,15
2016-09-09T05:24:20.272Z,15
2016-09-09T05:25:19.573Z,15
2016-09-09T05:26:19.603Z,15
2016-09-09T05:27:19.269Z,15
2016-09-09T05:28:20.218Z,15
2016-09-09T05:29:20.281Z,15
2016-09-09T05:30:20.154Z,15
2016-09-09T05:31:19.834Z,15
2016-09-09T05:32:19.489Z,15
2016-09-09T05:33:19.487Z,15
2016-09-09T05:34:20.091Z,10
2016-09-09T05:35:19.775Z,10
2016-09-09T05:36:19.459Z,10
2016-09-09T05:37:19.746Z,10
2016-09-09T05:38:20.121Z,10
2016-09-09T05:39:20.124Z,10
2016-09-09T05:40:20.051Z,10
2016-09-09T05:41:19.710Z,10
2016-09-09T05:42:20.003Z,10
2016-09-09T05:43:19.693Z,10
2016-09-09T05:44:19.677Z,15
2016-09-09T05:45:19.675Z,15
2016-09-09T05:46:19.327Z,15
2016-09-09T05:47:19.971Z,15
2016-09-09T05:48:19.932Z,15
2016-09-09T05:49:19.901Z,15
2016-09-09T05:50:19.589Z,20
2016-09-09T05:51:19.904Z,20
2016-09-09T05:52:19.252Z,20
2016-09-09T05:53:19.874Z,25
2016-09-09T05:54:19.861Z,25
2016-09-09T05:55:19.531Z,25
2016-09-09T05:56:19.841Z,30
2016-09-09T05:57:19.839Z,30
2016-09-09T05:58:19.803Z,30
2016-09-09T05:59:19.463Z,35
2016-09-09T06:00:19.160Z,35
2016-09-09T06:01:18.818Z,35
2016-09-09T06:02:19.751Z,35
2016-09-09T06:03:19.737Z,35
2016-09-09T06:04:19.430Z,35
2016-09-09T06:05:19.742Z,35
2016-09-09T06:06:19.397Z,35
2016-09-09T06:07:19.392Z,35
2016-09-09T06:08:19.694Z,40
2016-09-09T06:09:19.364Z,40
2016-09-09T06:10:19.654Z,40
2016-09-09T06:11:19.313Z,35
2016-09-09T06:12:19.633Z,40
2016-09-09T06:13:19.621Z,40
2016-09-09T06:14:19.605Z,40
2016-09-09T06:15:19.590Z,35
2016-09-09T06:16:19.253Z,35
2016-09-09T06:17:19.256Z,35
2016-09-09T06:18:19.262Z,35
2016-09-09T06:19:19.233Z,35
2016-09-09T06:20:19.208Z,40
2016-09-09T06:21:18.876Z,40
2016-09-09T06:22:18.853Z,40
2016-09-09T06:23:18.925Z,40
2016-09-09T06:24:19.131Z,40
2016-09-09T06:25:19.505Z,50
2016-09-09T06:26:19.440Z,50
2016-09-09T06:27:18.825Z,50
2016-09-09T06:28:19.110Z,50
2016-09-09T06:29:19.094Z,50
2016-09-09T06:30:19.094Z,55
2016-09-09T06:31:19.092Z,60
2016-09-09T06:32:18.748Z,60
2016-09-09T06:33:19.056Z,70
2016-09-09T06:34:19.036Z,60
2016-09-09T06:35:19.341Z,55
2016-09-09T06:36:18.692Z,60
2016-09-09T06:37:19.325Z,65
2016-09-09T06:38:19.303Z,60
2016-09-09T06:39:19.390Z,55
2016-09-09T06:40:19.307Z,50
2016-09-09T06:41:18.628Z,50
2016-09-09T06:42:18.956Z,60
2016-09-09T06:43:19.220Z,60
2016-09-09T06:44:18.293Z,60
2016-09-09T06:45:19.245Z,60
2016-09-09T06:46:19.243Z,65
2016-09-09T06:47:18.844Z,70
2016-09-09T06:48:19.242Z,70
2016-09-09T06:49:18.831Z,70
2016-09-09T06:50:18.512Z,65
2016-09-09T06:51:19.149Z,65
2016-09-09T06:52:18.789Z,70
2016-09-09T06:53:18.758Z,75
2016-09-09T06:54:19.102Z,75
2016-09-09T06:55:19.081Z,75
2016-09-09T06:56:19.065Z,80
2016-09-09T06:57:18.747Z,80
2016-09-09T06:58:18.499Z,85
2016-09-09T06:59:18.735Z,85
2016-09-09T07:00:18.378Z,85
2016-09-09T07:01:18.377Z,75
2016-09-09T07:02:18.672Z,70
2016-09-09T07:03:18.059Z,75
2016-09-09T07:04:18.665Z,75
2016-09-09T07:05:18.954Z,75
2016-09-09T07:06:18.626Z,70
2016-09-09T07:07:18.627Z,70
2016-09-09T07:08:18.594Z,75
2016-09-09T07:09:18.588Z,80
2016-09-09T07:10:18.581Z,85
2016-09-09T07:11:18.899Z,85
2016-09-09T07:12:18.549Z,85
2016-09-09T07:13:18.222Z,90
2016-09-09T07:14:18.846Z,90
2016-09-09T07:15:18.572Z,100
2016-09-09T07:16:18.835Z,110
2016-09-09T07:17:18.195Z,95
2016-09-09T07:18:18.488Z,85
2016-09-09T07:19:18.775Z,95
2016-09-09T07:20:18.453Z,105
2016-09-09T07:21:18.464Z,95
2016-09-09T07:22:18.437Z,85
2016-09-09T07:23:18.742Z,90
2016-09-09T07:24:18.730Z,105
2016-09-09T07:25:18.052Z,110
2016-09-09T07:26:18.080Z,100
2016-09-09T07:27:18.694Z,90
2016-09-09T07:28:18.670Z,90
2016-09-09T07:29:18.048Z,95
2016-09-09T07:30:18.330Z,90
2016-09-09T07:31:18.314Z,85
2016-09-09T07:32:18.314Z,85
2016-09-09T07:33:18.304Z,80
2016-09-09T07:34:18.602Z,85
2016-09-09T07:35:18.265Z,80
2016-09-09T07:36:18.593Z,80
2016-09-09T07:37:17.917Z,80
2016-09-09T07:38:18.564Z,80
2016-09-09T07:39:18.212Z,75
2016-09-09T07:40:17.962Z,70
2016-09-09T07:41:18.522Z,75
2016-09-09T07:42:17.870Z,80
2016-09-09T07:43:17.857Z,85
2016-09-09T07:44:18.164Z,80
2016-09-09T07:45:18.163Z,80
2016-09-09T07:46:18.477Z,85
2016-09-09T07:47:18.130Z,85
2016-09-09T07:48:18.135Z,80
2016-09-09T07:49:18.431Z,80
2016-09-09T07:50:17.766Z,80
2016-09-09T07:51:18.072Z,80
2016-09-09T07:52:18.047Z,75
2016-09-09T07:53:17.735Z,70
2016-09-09T07:54:18.050Z,65
2016-09-09T07:55:18.390Z,65
2016-09-09T07:56:18.021Z,70
2016-09-09T07:57:18.071Z,70
2016-09-09T07:58:17.375Z,70
2016-09-09T07:59:17.349Z,75
2016-09-09T08:00:18.277Z,75
2016-09-09T08:01:17.636Z,75
2016-09-09T08:02:18.262Z,75
2016-09-09T08:03:17.946Z,75
2016-09-09T08:04:17.918Z,75
2016-09-09T08:05:18.229Z,75
2016-09-09T08:06:17.580Z,70
2016-09-09T08:07:17.884Z,50
2016-09-09T08:08:18.183Z,60
2016-09-09T08:09:17.564Z,65
2016-09-09T08:10:17.866Z,65
2016-09-09T08:11:17.854Z,70
2016-09-09T08:12:18.140Z,70
2016-09-09T08:13:17.820Z,70
2016-09-09T08:14:17.799Z,70
2016-09-09T08:15:17.175Z,75
2016-09-09T08:16:17.757Z,75
2016-09-09T08:17:17.766Z,75
2016-09-09T08:18:17.419Z,75
2016-09-09T08:19:17.438Z,80
2016-09-09T08:20:17.737Z,80
2016-09-09T08:21:17.736Z,80
2016-09-09T08:22:17.737Z,80
2016-09-09T08:23:17.386Z,80
2016-09-09T08:24:17.036Z,75
2016-09-09T08:25:17.357Z,75
2016-09-09T08:26:17.659Z,75
2016-09-09T08:27:17.648Z,75
2016-09-09T08:28:17.952Z,75
2016-09-09T08:29:17.615Z,75
2016-09-09T08:30:17.307Z,75
2016-09-09T08:31:17.588Z,80
2016-09-09T08:32:17.876Z,80
2016-09-09T08:33:17.256Z,85
2016-09-09T08:34:17.214Z,85
2016-09-09T08:35:17.218Z,85
2016-09-09T08:36:17.249Z,90
2016-09-09T08:37:17.841Z,90
2016-09-09T08:38:17.516Z,100
2016-09-09T08:39:17.239Z,100
2016-09-09T08:40:17.486Z,105
2016-09-09T08:41:17.191Z,105
2016-09-09T08:42:17.159Z,110
2016-09-09T08:43:17.773Z,115
2016-09-09T08:44:17.191Z,115
2016-09-09T08:45:17.093Z,115
2016-09-09T08:46:17.088Z,120
2016-09-09T08:47:17.419Z,130
2016-09-09T08:48:16.756Z,130
2016-09-09T08:49:17.689Z,120
2016-09-09T08:50:17.746Z,115
2016-09-09T08:51:17.365Z,110
2016-09-09T08:52:17.710Z,115
2016-09-09T08:53:17.349Z,110
2016-09-09T08:54:17.328Z,115
2016-09-09T08:55:17.289Z,120
2016-09-09T08:56:17.636Z,120
2016-09-09T08:57:17.275Z,130
2016-09-09T08:58:17.259Z,150
2016-09-09T08:59:17.598Z,140
2016-09-09T09:00:17.582Z,145
2016-09-09T09:01:16.936Z,145
2016-09-09T09:02:17.535Z,140
2016-09-09T09:03:17.239Z,145
2016-09-09T09:04:16.996Z,145
2016-09-09T09:05:17.529Z,155
2016-09-09T09:06:17.189Z,165
2016-09-09T09:07:16.870Z,205
2016-09-09T09:08:17.157Z,225
2016-09-09T09:09:17.157Z,215
2016-09-09T09:10:17.117Z,180
2016-09-09T09:11:16.814Z,170
2016-09-09T09:12:17.168Z,165
2016-09-09T09:13:17.110Z,175
2016-09-09T09:14:17.085Z,185
2016-09-09T09:15:16.760Z,200
2016-09-09T09:16:17.393Z,215
2016-09-09T09:17:17.375Z,245
2016-09-09T09:18:17.369Z,195
2016-09-09T09:19:17.049Z,190
2016-09-09T09:20:17.086Z,200
2016-09-09T09:21:17.339Z,190
2016-09-09T09:22:17.326Z,180
2016-09-09T09:23:16.987Z,180
2016-09-09T09:24:16.685Z,180
2016-09-09T09:25:17.289Z,200
2016-09-09T09:26:16.955Z,250
2016-09-09T09:27:16.628Z,310
2016-09-09T09:28:16.616Z,265
2016-09-09T09:29:16.597Z,265
2016-09-09T09:30:16.587Z,360
2016-09-09T09:31:17.220Z,370
2016-09-09T09:32:17.205Z,360
2016-09-09T09:33:16.973Z,335
2016-09-09T09:34:16.545Z,305
2016-09-09T09:35:17.364Z,295
2016-09-09T09:36:16.844Z,290
2016-09-09T09:37:17.155Z,295
2016-09-09T09:38:16.888Z,365
2016-09-09T09:39:17.127Z,395
2016-09-09T09:40:16.809Z,465
2016-09-09T09:41:17.125Z,510
2016-09-09T09:42:17.120Z,1100
2016-09-09T09:43:17.156Z,1215
2016-09-09T09:44:17.106Z,1265
2016-09-09T09:45:16.757Z,1220
2016-09-09T09:46:16.416Z,1110
2016-09-09T09:47:16.748Z,1205
2016-09-09T09:48:16.743Z,1140
2016-09-09T09:49:17.058Z,1200
2016-09-09T09:50:16.779Z,1210
2016-09-09T09:51:16.694Z,950
2016-09-09T09:52:16.715Z,705
2016-09-09T09:53:16.708Z,1170
2016-09-09T09:54:17.009Z,1245
2016-09-09T09:55:16.995Z,1200
2016-09-09T09:56:16.366Z,1215
2016-09-09T09:57:16.014Z,1260
2016-09-09T09:58:16.685Z,1145
2016-09-09T09:59:16.658Z,1170
2016-09-09T10:00:16.968Z,1140
2016-09-09T10:01:16.647Z,1115
2016-09-09T10:02:16.638Z,1110
2016-09-09T10:03:16.648Z,1090
2016-09-09T10:04:16.300Z,1080
2016-09-09T10:05:16.642Z,1095
2016-09-09T10:06:16.636Z,1085
2016-09-09T10:07:16.601Z,1070
2016-09-09T10:08:16.636Z,1075
2016-09-09T10:09:16.614Z,960
2016-09-09T10:10:16.600Z,1010
2016-09-09T10:11:16.917Z,980
2016-09-09T10:12:16.583Z,1010
2016-09-09T10:13:16.589Z,995
2016-09-09T10:14:16.992Z,990
2016-09-09T10:15:16.598Z,960
2016-09-09T10:16:16.899Z,920
2016-09-09T10:17:16.889Z,690
2016-09-09T10:18:16.233Z,520
2016-09-09T10:19:16.579Z,430
2016-09-09T10:20:16.601Z,430
2016-09-09T10:21:16.859Z,420
2016-09-09T10:22:16.530Z,425
2016-09-09T10:23:16.538Z,415
2016-09-09T10:24:16.192Z,415
2016-09-09T10:25:16.219Z,410
2016-09-09T10:26:16.518Z,410
2016-09-09T10:27:16.538Z,410
2016-09-09T10:28:16.849Z,410
2016-09-09T10:29:16.548Z,405
2016-09-09T10:30:16.518Z,400
2016-09-09T10:31:16.153Z,395
2016-09-09T10:32:16.793Z,395
2016-09-09T10:33:16.488Z,395
2016-09-09T10:34:16.189Z,390
2016-09-09T10:35:16.799Z,395
2016-09-09T10:36:16.819Z,390
2016-09-09T10:37:16.810Z,385
2016-09-09T10:38:16.462Z,380
2016-09-09T10:39:16.466Z,380
2016-09-09T10:40:16.129Z,385
2016-09-09T10:41:16.758Z,380
2016-09-09T10:42:16.420Z,380
2016-09-09T10:43:16.448Z,375
2016-09-09T10:44:16.743Z,390
2016-09-09T10:45:16.479Z,390
2016-09-09T10:46:16.395Z,395
2016-09-09T10:47:16.726Z,385
2016-09-09T10:48:16.473Z,375
2016-09-09T10:49:16.448Z,375
2016-09-09T10:50:16.392Z,370
2016-09-09T10:51:16.406Z,375
2016-09-09T10:52:16.710Z,370
2016-09-09T10:53:16.386Z,375
2016-09-09T10:54:16.389Z,370
2016-09-09T10:55:16.686Z,360
2016-09-09T10:56:16.358Z,360
2016-09-09T10:57:16.365Z,350
2016-09-09T10:58:16.735Z,340
2016-09-09T10:59:16.355Z,335
2016-09-09T11:00:16.046Z,335
2016-09-09T11:01:16.369Z,335
2016-09-09T11:02:16.687Z,340
2016-09-09T11:03:16.009Z,340
2016-09-09T11:04:16.299Z,335
2016-09-09T11:05:16.305Z,335
2016-09-09T11:06:16.005Z,335
2016-09-09T11:07:16.298Z,335
2016-09-09T11:08:16.369Z,330
2016-09-09T11:09:16.601Z,335
2016-09-09T11:10:16.629Z,335
2016-09-09T11:11:15.978Z,330
2016-09-09T11:12:16.278Z,330
2016-09-09T11:13:16.289Z,330
2016-09-09T11:14:16.607Z,325
2016-09-09T11:15:16.595Z,325
2016-09-09T11:16:15.939Z,320
2016-09-09T11:17:16.575Z,320
2016-09-09T11:18:15.608Z,325
2016-09-09T11:19:16.239Z,320
2016-09-09T11:20:16.260Z,315
2016-09-09T11:21:16.224Z,310
2016-09-09T11:22:16.234Z,305
2016-09-09T11:23:15.907Z,315
2016-09-09T11:24:16.219Z,310
2016-09-09T11:25:15.894Z,305
2016-09-09T11:26:16.207Z,310
2016-09-09T11:27:16.183Z,315
2016-09-09T11:28:15.865Z,310
2016-09-09T11:29:15.875Z,310
2016-09-09T11:30:16.575Z,310
2016-09-09T11:31:16.528Z,310
2016-09-09T11:32:16.218Z,295
2016-09-09T11:33:16.246Z,300
2016-09-09T11:34:16.505Z,290
2016-09-09T11:35:16.166Z,295
2016-09-09T11:36:16.472Z,300
2016-09-09T11:37:15.897Z,300
2016-09-09T11:38:16.148Z,310
2016-09-09T11:39:16.465Z,310
2016-09-09T11:40:16.138Z,310
2016-09-09T11:41:15.483Z,310
2016-09-09T11:42:15.799Z,310
2016-09-09T11:43:16.104Z,305
2016-09-09T11:44:16.442Z,310
2016-09-09T11:45:16.427Z,305
2016-09-09T11:46:16.090Z,305
2016-09-09T11:47:16.088Z,300
2016-09-09T11:48:15.786Z,305
2016-09-09T11:49:16.169Z,305
2016-09-09T11:50:15.745Z,310
2016-09-09T11:51:16.398Z,300
2016-09-09T11:52:16.392Z,305
2016-09-09T11:53:16.370Z,305
2016-09-09T11:54:16.040Z,295
2016-09-09T11:55:16.376Z,300
2016-09-09T11:56:16.061Z,195
2016-09-09T11:57:16.046Z,190
2016-09-09T11:58:16.041Z,300
2016-09-09T11:59:16.026Z,295
2016-09-09T12:00:16.021Z,300
2016-09-09T12:01:16.034Z,290
2016-09-09T12:02:16.367Z,300
2016-09-09T12:03:16.337Z,240
2016-09-09T12:04:15.357Z,275
2016-09-09T12:05:16.341Z,225
2016-09-09T12:06:15.689Z,180
2016-09-09T12:07:16.308Z,185
2016-09-09T12:08:16.302Z,180
2016-09-09T12:09:16.045Z,180
2016-09-09T12:10:15.710Z,285
2016-09-09T12:11:15.027Z,310
2016-09-09T12:12:15.958Z,265
2016-09-09T12:13:16.289Z,180
2016-09-09T12:14:15.634Z,190
2016-09-09T12:15:15.639Z,290
2016-09-09T12:16:15.936Z,315
2016-09-09T12:17:15.624Z,315
2016-09-09T12:18:16.257Z,310
2016-09-09T12:19:15.619Z,190
2016-09-09T12:20:15.928Z,195
2016-09-09T12:21:15.599Z,220
2016-09-09T12:22:15.910Z,290
2016-09-09T12:23:16.217Z,310
2016-09-09T12:24:16.220Z,315
2016-09-09T12:25:16.201Z,320
2016-09-09T12:26:15.883Z,320
2016-09-09T12:27:15.659Z,320
2016-09-09T12:28:15.879Z,320
2016-09-09T12:29:16.193Z,315
2016-09-09T12:30:15.626Z,305
2016-09-09T12:31:15.239Z,185
2016-09-09T12:32:15.848Z,265
2016-09-09T12:33:15.529Z,115
2016-09-09T12:34:15.501Z,135
2016-09-09T12:35:15.818Z,145
2016-09-09T12:36:15.820Z,160
2016-09-09T12:37:16.129Z,160
2016-09-09T12:38:15.490Z,160
2016-09-09T12:39:15.523Z,155
2016-09-09T12:40:15.825Z,100
2016-09-09T12:41:15.177Z,155
2016-09-09T12:42:15.462Z,150
2016-09-09T12:43:16.118Z,75
2016-09-09T12:44:15.782Z,70
2016-09-09T12:45:16.076Z,65
2016-09-09T12:46:15.459Z,65
2016-09-09T12:47:16.137Z,65
2016-09-09T12:48:15.120Z,65
2016-09-09T12:49:16.068Z,65
2016-09-09T12:50:15.759Z,75
2016-09-09T12:51:15.756Z,75
2016-09-09T12:52:15.418Z,90
2016-09-09T12:53:15.406Z,140
2016-09-09T12:54:15.801Z,160
2016-09-09T12:55:16.041Z,155
2016-09-09T12:56:15.708Z,155
2016-09-09T12:57:15.700Z,65
2016-09-09T12:58:15.410Z,80
2016-09-09T12:59:15.686Z,65
2016-09-09T13:00:15.386Z,85
2016-09-09T13:01:15.784Z,65
2016-09-09T13:02:15.038Z,65
2016-09-09T13:03:15.978Z,65
2016-09-09T13:04:14.712Z,70
2016-09-09T13:05:15.346Z,75
2016-09-09T13:06:15.945Z,75
2016-09-09T13:07:15.017Z,75
2016-09-09T13:08:15.941Z,80
2016-09-09T13:09:15.319Z,75
2016-09-09T13:10:15.296Z,80
2016-09-09T13:11:15.940Z,130
2016-09-09T13:12:15.298Z,145
2016-09-09T13:13:14.966Z,150
2016-09-09T13:14:15.907Z,150
2016-09-09T13:15:15.901Z,115
2016-09-09T13:16:15.897Z,70
2016-09-09T13:17:15.580Z,125
2016-09-09T13:18:15.636Z,130
2016-09-09T13:19:15.553Z,105
2016-09-09T13:20:14.962Z,140
2016-09-09T13:21:15.228Z,145
2016-09-09T13:22:15.236Z,145
2016-09-09T13:23:15.540Z,150
2016-09-09T13:24:15.856Z,135
2016-09-09T13:25:15.849Z,65
2016-09-09T13:26:15.832Z,65
2016-09-09T13:27:15.528Z,75
2016-09-09T13:28:15.486Z,145
2016-09-09T13:29:15.486Z,135
2016-09-09T13:30:15.478Z,130
2016-09-09T13:31:14.845Z,135
2016-09-09T13:32:15.173Z,130
2016-09-09T13:33:15.809Z,135
2016-09-09T13:34:15.468Z,135
2016-09-09T13:35:15.136Z,135
2016-09-09T13:36:15.160Z,135
2016-09-09T13:37:15.765Z,135
2016-09-09T13:38:14.895Z,130
2016-09-09T13:39:15.418Z,115
2016-09-09T13:40:15.444Z,120
2016-09-09T13:41:15.418Z,120
2016-09-09T13:42:15.736Z,130
2016-09-09T13:43:15.396Z,120
2016-09-09T13:44:15.416Z,125
2016-09-09T13:45:14.746Z,130
2016-09-09T13:46:15.077Z,125
2016-09-09T13:47:15.056Z,130
2016-09-09T13:48:15.680Z,130
2016-09-09T13:49:15.674Z,130
2016-09-09T13:50:15.369Z,130
2016-09-09T13:51:15.661Z,125
2016-09-09T13:52:15.044Z,125
2016-09-09T13:53:15.660Z,125
2016-09-09T13:54:15.687Z,115
2016-09-09T13:55:15.028Z,120
2016-09-09T13:56:15.047Z,120
2016-09-09T13:57:15.027Z,120
2016-09-09T13:58:15.327Z,120
2016-09-09T13:59:15.638Z,120
2016-09-09T14:00:14.995Z,115
2016-09-09T14:01:15.626Z,110
2016-09-09T14:02:15.357Z,110
2016-09-09T14:03:15.275Z,110
2016-09-09T14:04:15.303Z,110
2016-09-09T14:05:14.667Z,110
2016-09-09T14:06:15.617Z,115
2016-09-09T14:07:15.592Z,115
2016-09-09T14:08:15.309Z,120
2016-09-09T14:09:15.559Z,110
2016-09-09T14:10:15.569Z,110
2016-09-09T14:11:15.257Z,110
2016-09-09T14:12:14.615Z,110
2016-09-09T14:13:14.917Z,110
2016-09-09T14:14:15.238Z,110